Time;durP1;ratioP1;P1;durP2;ratioP2;P2;SDS_P1;SDS_P2;PMS_P1;PMS_P2;Temp;Humidity;BMP_temperature;BMP_pressure;BME280_temperature;BME280_humidity;BME280_pressure;Samples;Min_cycle;Max_cycle;Signal;HPM_P1;HPM_P2
2023/09/04 00:00:06;;;;;;;2.70;1.87;;;15.20;99.90;;;;;;5057718;28;20512;-95
2023/09/04 00:02:32;;;;;;;2.20;2.00;;;15.20;99.90;;;;;;5057515;28;20447;-95
2023/09/04 00:04:59;;;;;;;3.30;2.10;;;15.30;99.90;;;;;;5055730;28;20552;-96
2023/09/04 00:07:26;;;;;;;1.77;1.67;;;15.20;99.90;;;;;;5057041;28;20456;-95
2023/09/04 00:09:53;;;;;;;2.67;2.20;;;15.20;99.90;;;;;;5056094;28;20457;-95
2023/09/04 00:12:20;;;;;;;2.70;2.20;;;15.20;99.90;;;;;;5052165;28;20593;-94
2023/09/04 00:14:48;;;;;;;2.87;2.40;;;15.20;99.90;;;;;;5051893;28;20495;-95
2023/09/04 00:17:15;;;;;;;2.80;1.87;;;15.10;99.90;;;;;;5051480;28;20524;-94
2023/09/04 00:19:41;;;;;;;2.53;2.30;;;15.10;99.90;;;;;;5050283;28;20468;-94
2023/09/04 00:22:08;;;;;;;3.00;2.43;;;15.10;99.90;;;;;;5051691;28;20469;-95
2023/09/04 00:24:35;;;;;;;2.70;2.50;;;15.10;99.90;;;;;;5057649;28;20469;-94
2023/09/04 00:27:02;;;;;;;3.23;2.57;;;15.10;99.90;;;;;;5057868;28;20443;-94
2023/09/04 00:29:28;;;;;;;2.37;2.13;;;15.00;99.90;;;;;;5057592;28;20437;-95
2023/09/04 00:31:57;;;;;;;2.27;2.03;;;15.00;99.90;;;;;;5057443;28;20456;-94
2023/09/04 00:34:23;;;;;;;3.70;2.47;;;15.00;99.90;;;;;;5057607;28;20465;-95
2023/09/04 00:36:50;;;;;;;2.10;1.90;;;15.00;99.90;;;;;;5056770;28;20541;-94
2023/09/04 00:39:18;;;;;;;2.40;2.20;;;15.00;99.90;;;;;;5056663;28;20472;-96
2023/09/04 00:41:45;;;;;;;2.13;1.93;;;15.00;99.90;;;;;;5055928;28;20487;-95
2023/09/04 00:44:14;;;;;;;2.47;2.27;;;15.00;99.90;;;;;;5052685;28;20552;-94
2023/09/04 00:46:43;;;;;;;3.10;2.07;;;14.90;99.90;;;;;;5051745;28;20484;-95
2023/09/04 00:49:15;;;;;;;2.23;2.00;;;14.90;99.90;;;;;;5052036;28;20834;-94
2023/09/04 00:51:42;;;;;;;2.40;2.07;;;14.90;99.90;;;;;;5053239;28;20449;-94
2023/09/04 00:54:10;;;;;;;2.40;2.20;;;14.90;99.90;;;;;;5052811;28;20486;-95
2023/09/04 00:56:37;;;;;;;3.00;1.97;;;14.90;99.90;;;;;;5053184;28;20477;-95
2023/09/04 00:59:04;;;;;;;7.10;2.00;;;14.90;99.90;;;;;;5052596;28;20524;-94
2023/09/04 01:01:31;;;;;;;2.80;2.13;;;14.90;99.90;;;;;;5054734;28;20531;-94
2023/09/04 01:03:58;;;;;;;2.20;2.00;;;14.90;99.90;;;;;;5054962;28;20555;-95
2023/09/04 01:06:26;;;;;;;2.20;2.00;;;14.90;99.90;;;;;;5055927;28;20527;-95
2023/09/04 01:08:55;;;;;;;4.40;2.47;;;14.90;99.90;;;;;;5055160;28;20456;-94
2023/09/04 01:11:29;;;;;;;3.97;2.80;;;14.90;99.90;;;;;;5057070;28;20462;-96
2023/09/04 01:13:57;;;;;;;4.73;2.30;;;14.90;99.90;;;;;;5058303;28;20526;-94
2023/09/04 01:16:25;;;;;;;2.53;2.33;;;14.90;99.90;;;;;;5055360;28;20472;-96
2023/09/04 01:18:52;;;;;;;2.50;2.30;;;14.80;99.90;;;;;;5055491;28;20436;-95
2023/09/04 01:21:20;;;;;;;3.10;2.23;;;14.80;99.90;;;;;;5057003;28;20467;-95
2023/09/04 01:23:47;;;;;;;3.87;2.30;;;14.80;99.90;;;;;;5055393;28;21069;-94
2023/09/04 01:26:18;;;;;;;2.30;1.93;;;14.80;99.90;;;;;;5055087;28;20484;-94
2023/09/04 01:28:55;;;;;;;2.50;2.30;;;14.80;99.90;;;;;;5054439;28;20445;-95
2023/09/04 01:31:27;;;;;;;4.10;2.10;;;14.80;99.90;;;;;;5054563;28;20469;-94
2023/09/04 01:34:00;;;;;;;2.93;2.23;;;14.80;99.90;;;;;;5053775;28;20481;-94
2023/09/04 01:36:31;;;;;;;3.27;2.70;;;14.70;99.90;;;;;;5054659;28;20483;-94
2023/09/04 01:38:58;;;;;;;2.13;1.93;;;14.70;99.90;;;;;;5054177;28;20456;-94
2023/09/04 01:41:25;;;;;;;2.40;2.20;;;14.70;99.90;;;;;;5055168;28;20456;-95
2023/09/04 01:43:53;;;;;;;2.97;2.20;;;14.80;99.90;;;;;;5054815;28;20486;-95
2023/09/04 01:46:21;;;;;;;3.43;2.67;;;14.80;99.90;;;;;;5056250;28;20823;-94
2023/09/04 01:48:48;;;;;;;2.30;2.10;;;14.80;99.90;;;;;;5054543;28;20499;-94
2023/09/04 01:51:15;;;;;;;2.37;2.07;;;14.80;99.90;;;;;;5055256;28;20464;-95
2023/09/04 01:53:43;;;;;;;2.30;2.10;;;14.70;99.90;;;;;;5053699;28;20579;-93
2023/09/04 01:56:10;;;;;;;4.47;2.50;;;14.70;99.90;;;;;;5053583;28;20480;-94
2023/09/04 01:58:37;;;;;;;2.40;2.20;;;14.70;99.90;;;;;;5052781;28;20540;-94
2023/09/04 02:01:07;;;;;;;2.50;2.30;;;14.70;99.90;;;;;;5052381;28;20524;-94
2023/09/04 02:03:34;;;;;;;2.90;2.60;;;14.70;99.90;;;;;;5051415;28;20564;-95
2023/09/04 02:06:00;;;;;;;2.53;2.30;;;14.70;99.90;;;;;;5052282;28;20464;-94
2023/09/04 02:08:27;;;;;;;2.57;2.30;;;14.70;99.90;;;;;;5051982;28;20488;-94
2023/09/04 02:10:56;;;;;;;3.00;2.40;;;14.70;99.90;;;;;;5051457;28;20480;-94
2023/09/04 02:13:22;;;;;;;2.53;2.27;;;14.70;99.90;;;;;;5051066;28;20485;-93
2023/09/04 02:15:49;;;;;;;2.70;2.37;;;14.70;99.90;;;;;;5051318;28;20467;-94
2023/09/04 02:18:16;;;;;;;2.67;2.43;;;14.60;99.90;;;;;;5051826;28;20468;-94
2023/09/04 02:20:43;;;;;;;2.60;2.40;;;14.60;99.90;;;;;;5051540;28;20460;-94
2023/09/04 02:23:10;;;;;;;2.47;2.27;;;14.60;99.90;;;;;;5051649;28;20459;-94
2023/09/04 02:25:37;;;;;;;2.60;2.40;;;14.60;99.90;;;;;;5051961;28;20453;-94
2023/09/04 02:28:05;;;;;;;2.53;2.20;;;14.60;99.90;;;;;;5052231;28;20484;-93
2023/09/04 02:30:32;;;;;;;3.10;2.30;;;14.60;99.90;;;;;;5053821;28;20460;-94
2023/09/04 02:33:00;;;;;;;3.80;2.80;;;14.60;99.90;;;;;;5051550;28;20532;-95
2023/09/04 02:35:27;;;;;;;2.87;2.67;;;14.60;99.90;;;;;;5051941;28;20516;-94
2023/09/04 02:37:54;;;;;;;2.57;2.37;;;14.60;99.90;;;;;;5052039;28;20460;-94
2023/09/04 02:40:20;;;;;;;2.80;2.60;;;14.60;99.90;;;;;;5052340;28;20456;-94
2023/09/04 02:42:47;;;;;;;3.30;2.97;;;14.60;99.90;;;;;;5052873;28;20532;-94
2023/09/04 02:45:15;;;;;;;2.80;2.37;;;14.60;99.90;;;;;;5051638;28;20556;-94
2023/09/04 02:47:42;;;;;;;4.50;3.20;;;14.50;99.90;;;;;;5051560;28;20537;-94
2023/09/04 02:50:10;;;;;;;2.50;2.30;;;14.50;99.90;;;;;;5051481;28;20463;-94
2023/09/04 02:52:37;;;;;;;3.17;2.73;;;14.50;99.90;;;;;;5050423;28;20465;-95
2023/09/04 02:55:06;;;;;;;2.80;2.60;;;14.50;99.90;;;;;;5050948;28;20511;-94
2023/09/04 02:57:33;;;;;;;4.57;2.87;;;14.50;99.90;;;;;;5049979;28;20461;-95
2023/09/04 03:00:01;;;;;;;2.50;2.30;;;14.50;99.90;;;;;;5052116;28;20468;-95
2023/09/04 03:02:29;;;;;;;2.70;2.50;;;14.40;99.90;;;;;;5052303;28;20520;-93
2023/09/04 03:04:57;;;;;;;2.37;2.17;;;14.40;99.90;;;;;;5051989;28;20484;-95
2023/09/04 03:07:26;;;;;;;3.27;2.97;;;14.40;99.90;;;;;;5051645;28;20468;-94
2023/09/04 03:09:56;;;;;;;2.67;2.37;;;14.40;99.90;;;;;;5051967;28;20539;-95
2023/09/04 03:12:24;;;;;;;2.57;2.37;;;14.30;99.90;;;;;;5051670;28;20456;-94
2023/09/04 03:14:56;;;;;;;4.40;3.13;;;14.30;99.90;;;;;;5061493;22;20613;-64
2023/09/04 03:17:23;;;;;;;2.50;2.30;;;14.30;99.90;;;;;;5050665;28;20476;-64
2023/09/04 03:19:51;;;;;;;3.20;2.90;;;14.30;99.90;;;;;;5050906;28;20869;-64
2023/09/04 03:22:18;;;;;;;2.90;2.60;;;14.30;99.90;;;;;;5050310;28;20462;-64
2023/09/04 03:24:45;;;;;;;3.07;2.60;;;14.20;99.90;;;;;;5050734;28;20459;-64
2023/09/04 03:27:12;;;;;;;3.23;2.97;;;14.20;99.90;;;;;;5051702;28;20797;-64
2023/09/04 03:29:39;;;;;;;4.07;2.80;;;14.20;99.90;;;;;;5050868;28;20480;-64
2023/09/04 03:32:06;;;;;;;2.43;2.23;;;14.20;99.90;;;;;;5053588;28;20462;-64
2023/09/04 03:34:33;;;;;;;3.57;2.93;;;14.20;99.90;;;;;;5052704;28;20459;-64
2023/09/04 03:37:01;;;;;;;3.80;2.80;;;14.20;99.90;;;;;;5050236;28;20506;-64
2023/09/04 03:39:28;;;;;;;3.30;3.00;;;14.20;99.90;;;;;;5053835;28;20483;-67
2023/09/04 03:41:54;;;;;;;2.90;2.60;;;14.20;99.90;;;;;;5048750;28;20459;-64
2023/09/04 03:44:21;;;;;;;2.70;2.50;;;14.10;99.90;;;;;;5051816;28;20826;-64
2023/09/04 03:46:48;;;;;;;4.43;2.47;;;14.10;99.90;;;;;;5049960;28;20942;-64
2023/09/04 03:49:15;;;;;;;3.17;2.87;;;14.10;99.90;;;;;;5049812;28;20471;-64
2023/09/04 03:51:42;;;;;;;2.93;2.60;;;14.10;99.90;;;;;;5049100;28;20463;-64
2023/09/04 03:54:10;;;;;;;2.90;2.30;;;14.10;99.90;;;;;;5041742;28;20452;-64
2023/09/04 03:56:37;;;;;;;3.80;2.80;;;14.00;99.90;;;;;;5049149;28;20490;-64
2023/09/04 03:59:04;;;;;;;3.00;2.60;;;14.00;99.90;;;;;;5050067;28;20482;-64
2023/09/04 04:01:33;;;;;;;2.90;2.40;;;14.00;99.90;;;;;;5051102;28;20510;-64
2023/09/04 04:03:59;;;;;;;2.90;2.70;;;14.00;99.90;;;;;;5050295;28;20466;-63
2023/09/04 04:06:26;;;;;;;4.97;3.07;;;14.00;99.90;;;;;;5051029;28;20486;-64
2023/09/04 04:08:54;;;;;;;4.20;2.97;;;13.90;99.90;;;;;;5060363;28;20461;-64
2023/09/04 04:11:22;;;;;;;2.90;2.50;;;13.90;99.90;;;;;;5070810;28;20459;-64
2023/09/04 04:13:49;;;;;;;4.37;3.60;;;13.90;99.90;;;;;;5053857;28;20475;-64
2023/09/04 04:16:16;;;;;;;4.07;3.23;;;13.90;99.90;;;;;;5052573;28;21015;-64
2023/09/04 04:18:43;;;;;;;3.27;2.43;;;13.90;99.90;;;;;;5052198;28;20466;-64
2023/09/04 04:21:09;;;;;;;2.80;2.60;;;13.80;99.90;;;;;;5054922;28;20562;-64
2023/09/04 04:23:36;;;;;;;3.17;2.60;;;13.80;99.90;;;;;;5049748;28;20456;-63
2023/09/04 04:26:03;;;;;;;3.63;3.00;;;13.80;99.90;;;;;;5049614;28;20471;-64
2023/09/04 04:28:31;;;;;;;3.00;2.80;;;13.80;99.90;;;;;;5049834;28;20204;-64
2023/09/04 04:31:01;;;;;;;3.40;2.90;;;13.80;99.90;;;;;;5049355;28;20483;-64
2023/09/04 04:33:28;;;;;;;3.57;3.10;;;13.80;99.90;;;;;;5050061;28;20466;-64
2023/09/04 04:35:54;;;;;;;3.47;3.17;;;13.80;99.90;;;;;;5051714;28;20487;-64
2023/09/04 04:38:21;;;;;;;2.57;2.37;;;13.80;99.90;;;;;;5051441;28;20456;-63
2023/09/04 04:40:48;;;;;;;3.17;2.80;;;13.80;99.90;;;;;;5052437;28;20472;-64
2023/09/04 04:43:18;;;;;;;3.10;2.60;;;13.70;99.90;;;;;;5045711;28;20459;-64
2023/09/04 04:45:46;;;;;;;3.13;2.63;;;13.80;99.90;;;;;;5053945;28;20527;-64
2023/09/04 04:48:13;;;;;;;3.30;2.47;;;13.80;99.90;;;;;;5053895;28;20459;-64
2023/09/04 04:50:39;;;;;;;3.20;2.83;;;13.80;99.90;;;;;;5053858;28;20484;-64
2023/09/04 04:53:06;;;;;;;4.37;3.10;;;13.80;99.90;;;;;;5053429;28;20970;-64
2023/09/04 04:55:33;;;;;;;5.03;2.90;;;13.80;99.90;;;;;;5053760;28;20451;-63
2023/09/04 04:57:59;;;;;;;3.20;2.90;;;13.80;99.90;;;;;;5053695;28;20458;-64
2023/09/04 05:00:26;;;;;;;3.73;2.53;;;13.90;99.90;;;;;;5053963;28;20876;-64
2023/09/04 05:02:54;;;;;;;2.90;2.43;;;13.90;99.90;;;;;;5053510;28;20451;-63
2023/09/04 05:05:21;;;;;;;4.77;2.70;;;13.80;99.90;;;;;;5054577;28;20870;-63
2023/09/04 05:07:48;;;;;;;2.90;2.33;;;13.80;99.90;;;;;;5054406;28;20462;-64
2023/09/04 05:10:15;;;;;;;3.20;2.90;;;13.80;99.90;;;;;;5053946;28;20479;-64
2023/09/04 05:12:41;;;;;;;3.47;3.10;;;13.80;99.90;;;;;;5053879;28;20463;-63
2023/09/04 05:15:09;;;;;;;3.50;2.93;;;13.90;99.90;;;;;;5053746;28;20468;-64
2023/09/04 05:17:35;;;;;;;3.20;2.90;;;13.90;99.90;;;;;;5053876;28;20485;-63
2023/09/04 05:20:05;;;;;;;3.20;2.80;;;13.90;99.90;;;;;;5053635;28;20474;-64
2023/09/04 05:22:32;;;;;;;3.63;2.70;;;13.90;99.90;;;;;;5053264;28;20458;-63
2023/09/04 05:24:58;;;;;;;4.50;3.20;;;14.00;99.90;;;;;;5053449;28;20459;-64
2023/09/04 05:27:25;;;;;;;4.00;3.50;;;14.00;99.90;;;;;;5053721;28;20458;-64
2023/09/04 05:29:54;;;;;;;2.87;2.60;;;14.00;99.90;;;;;;5053177;28;21192;-64
2023/09/04 05:32:21;;;;;;;3.50;2.63;;;14.10;99.90;;;;;;5045300;28;20455;-64
2023/09/04 05:34:51;;;;;;;3.70;2.87;;;14.10;99.90;;;;;;5053791;28;20451;-64
2023/09/04 05:37:20;;;;;;;3.20;2.80;;;14.10;99.90;;;;;;5053310;28;20864;-63
2023/09/04 05:39:46;;;;;;;3.20;2.90;;;14.20;99.90;;;;;;5052919;28;21211;-64
2023/09/04 05:42:13;;;;;;;3.63;3.23;;;14.20;99.90;;;;;;5052760;28;20463;-63
2023/09/04 05:44:40;;;;;;;2.93;2.60;;;14.30;99.90;;;;;;5052757;28;20469;-64
2023/09/04 05:47:07;;;;;;;3.20;2.90;;;14.30;99.90;;;;;;5052468;28;20480;-63
2023/09/04 05:49:34;;;;;;;3.23;2.93;;;14.30;99.90;;;;;;5052540;28;20482;-64
2023/09/04 05:52:00;;;;;;;4.20;3.03;;;14.30;99.90;;;;;;5052422;28;20829;-64
2023/09/04 05:54:29;;;;;;;2.77;2.57;;;14.40;99.90;;;;;;5052703;28;20456;-63
2023/09/04 05:56:56;;;;;;;3.20;2.90;;;14.40;99.90;;;;;;5052497;28;20479;-64
2023/09/04 05:59:23;;;;;;;3.80;3.17;;;14.50;99.90;;;;;;5044498;28;20601;-64
2023/09/04 06:01:50;;;;;;;2.77;2.30;;;14.50;99.90;;;;;;5052805;28;20841;-63
2023/09/04 06:04:16;;;;;;;2.83;2.53;;;14.50;99.90;;;;;;5052769;28;20465;-64
2023/09/04 06:06:43;;;;;;;4.33;3.03;;;14.60;99.90;;;;;;5052753;28;20466;-64
2023/09/04 06:09:10;;;;;;;5.50;3.40;;;14.70;99.90;;;;;;5052394;28;20476;-64
2023/09/04 06:11:38;;;;;;;4.93;4.00;;;14.70;99.90;;;;;;5052720;28;20451;-64
2023/09/04 06:14:05;;;;;;;4.57;3.97;;;14.80;99.90;;;;;;5051958;28;20459;-64
2023/09/04 06:16:33;;;;;;;3.60;3.30;;;14.90;99.90;;;;;;5052619;28;20590;-64
2023/09/04 06:19:00;;;;;;;4.10;3.70;;;15.00;99.90;;;;;;5052307;28;20458;-64
2023/09/04 06:21:27;;;;;;;4.33;3.60;;;15.00;99.90;;;;;;5052557;28;20463;-64
2023/09/04 06:23:53;;;;;;;4.77;4.23;;;15.10;99.90;;;;;;5051850;28;20455;-63
2023/09/04 06:26:20;;;;;;;4.57;4.13;;;15.20;99.90;;;;;;5052250;28;20561;-64
2023/09/04 06:28:48;;;;;;;5.20;4.70;;;15.30;99.90;;;;;;5051792;28;20459;-64
2023/09/04 06:31:15;;;;;;;4.30;3.90;;;15.40;99.90;;;;;;5052131;28;21149;-64
2023/09/04 06:33:43;;;;;;;4.03;3.60;;;15.40;99.90;;;;;;5051717;28;20463;-63
2023/09/04 06:36:10;;;;;;;3.90;3.47;;;15.60;99.90;;;;;;5052003;28;20517;-63
2023/09/04 06:38:37;;;;;;;4.90;4.00;;;15.70;99.90;;;;;;5051784;28;20483;-64
2023/09/04 06:41:04;;;;;;;4.33;3.83;;;15.80;99.90;;;;;;5051856;28;20472;-63
2023/09/04 06:43:31;;;;;;;5.00;4.00;;;15.90;99.90;;;;;;5051602;28;20481;-64
2023/09/04 06:46:00;;;;;;;4.30;3.90;;;15.90;99.90;;;;;;5052028;28;20455;-63
2023/09/04 06:48:27;;;;;;;4.00;3.60;;;16.00;99.90;;;;;;5051685;28;20462;-64
2023/09/04 06:50:54;;;;;;;5.13;3.77;;;16.10;99.90;;;;;;5051801;28;21084;-63
2023/09/04 06:53:21;;;;;;;5.23;4.43;;;16.20;99.90;;;;;;5051303;28;20464;-64
2023/09/04 06:55:48;;;;;;;4.33;3.73;;;16.30;99.90;;;;;;5051033;28;21056;-64
2023/09/04 06:58:15;;;;;;;4.90;4.00;;;16.30;99.90;;;;;;5067609;28;21012;-64
2023/09/04 07:00:42;;;;;;;4.00;3.60;;;16.40;99.90;;;;;;5067323;28;20540;-63
2023/09/04 07:03:10;;;;;;;4.33;3.40;;;16.50;99.90;;;;;;5059104;28;20463;-64
2023/09/04 07:05:36;;;;;;;5.27;4.17;;;16.60;99.90;;;;;;5048153;28;20452;-63
2023/09/04 07:08:04;;;;;;;4.43;3.80;;;16.60;99.90;;;;;;5048544;28;20522;-63
2023/09/04 07:10:31;;;;;;;4.07;3.67;;;16.70;99.90;;;;;;5048449;28;20525;-63
2023/09/04 07:12:59;;;;;;;4.43;4.03;;;16.80;99.90;;;;;;5056449;28;20884;-63
2023/09/04 07:15:26;;;;;;;3.97;3.67;;;16.90;99.90;;;;;;5058372;28;20459;-64
2023/09/04 07:17:52;;;;;;;4.03;3.30;;;17.00;99.90;;;;;;5051146;28;21036;-64
2023/09/04 07:20:21;;;;;;;3.90;3.50;;;17.10;99.90;;;;;;5050976;28;20499;-64
2023/09/04 07:22:47;;;;;;;3.97;3.57;;;17.20;99.90;;;;;;5050934;28;20457;-64
2023/09/04 07:25:14;;;;;;;4.23;3.83;;;17.30;99.90;;;;;;5068798;28;20456;-63
2023/09/04 07:27:41;;;;;;;4.20;3.80;;;17.40;99.90;;;;;;5071148;28;20462;-64
2023/09/04 07:30:09;;;;;;;4.10;3.80;;;17.50;99.90;;;;;;5053947;28;20503;-64
2023/09/04 07:32:35;;;;;;;4.73;4.30;;;17.50;99.90;;;;;;5055007;28;20452;-64
2023/09/04 07:35:03;;;;;;;4.80;4.40;;;17.60;99.90;;;;;;5055056;28;20461;-64
2023/09/04 07:37:31;;;;;;;3.87;3.47;;;17.80;99.90;;;;;;5050828;28;20565;-64
2023/09/04 07:39:58;;;;;;;4.17;3.70;;;17.90;99.90;;;;;;5066310;28;20473;-65
2023/09/04 07:42:25;;;;;;;4.67;3.37;;;18.00;99.90;;;;;;5051587;28;20465;-64
2023/09/04 07:44:52;;;;;;;3.93;3.57;;;18.10;99.90;;;;;;5056988;28;20504;-64
2023/09/04 07:47:20;;;;;;;3.70;3.40;;;18.30;99.90;;;;;;5052622;28;20809;-63
2023/09/04 07:49:46;;;;;;;3.50;3.20;;;18.40;99.90;;;;;;5050466;28;20483;-65
2023/09/04 07:52:13;;;;;;;3.80;3.50;;;18.50;99.90;;;;;;5050968;28;20541;-64
2023/09/04 07:54:41;;;;;;;4.47;3.60;;;18.70;99.90;;;;;;5050813;28;20469;-64
2023/09/04 07:57:08;;;;;;;2.67;2.40;;;18.80;99.90;;;;;;5051011;28;20582;-63
2023/09/04 07:59:35;;;;;;;3.80;3.40;;;19.00;99.90;;;;;;5050599;28;20510;-64
2023/09/04 08:02:01;;;;;;;3.87;3.50;;;19.10;99.90;;;;;;5058917;28;20455;-64
2023/09/04 08:04:28;;;;;;;3.67;3.37;;;19.30;99.90;;;;;;5053422;28;20837;-64
2023/09/04 08:06:56;;;;;;;3.60;3.30;;;19.40;99.90;;;;;;5070100;28;20458;-64
2023/09/04 08:09:23;;;;;;;3.70;3.40;;;19.40;99.90;;;;;;5068985;28;20489;-64
2023/09/04 08:11:51;;;;;;;3.97;3.57;;;19.60;99.90;;;;;;5064036;28;20458;-64
2023/09/04 08:14:18;;;;;;;3.67;3.30;;;19.70;99.90;;;;;;5062627;28;20837;-65
2023/09/04 08:16:44;;;;;;;3.50;3.20;;;19.80;99.90;;;;;;5063804;28;20456;-65
2023/09/04 08:19:11;;;;;;;3.77;3.40;;;19.90;99.90;;;;;;5050657;28;20479;-64
2023/09/04 08:21:38;;;;;;;3.10;2.80;;;20.00;99.90;;;;;;5050175;28;20455;-65
2023/09/04 08:24:05;;;;;;;4.10;3.70;;;20.20;99.90;;;;;;5050027;28;20887;-64
2023/09/04 08:26:32;;;;;;;4.40;3.80;;;20.30;99.90;;;;;;5050401;28;20460;-64
2023/09/04 08:29:00;;;;;;;3.83;3.30;;;20.30;99.90;;;;;;5064776;28;20953;-65
2023/09/04 08:31:27;;;;;;;3.47;3.17;;;20.40;99.90;;;;;;5070195;28;20485;-64
2023/09/04 08:33:53;;;;;;;3.33;3.10;;;20.40;99.90;;;;;;5070049;28;20465;-65
2023/09/04 08:36:20;;;;;;;3.77;3.00;;;20.60;99.90;;;;;;5070306;28;20950;-64
2023/09/04 08:38:47;;;;;;;3.70;3.27;;;20.70;99.90;;;;;;5052151;28;20486;-64
2023/09/04 08:41:17;;;;;;;3.13;2.87;;;20.80;99.90;;;;;;5044798;28;20471;-64
2023/09/04 08:43:48;;;;;;;3.50;3.20;;;20.90;99.90;;;;;;5039087;28;20471;-64
2023/09/04 08:46:17;;;;;;;3.43;2.90;;;21.00;99.90;;;;;;5039810;28;20528;-65
2023/09/04 08:48:45;;;;;;;3.10;2.80;;;21.00;99.90;;;;;;5029556;28;20456;-65
2023/09/04 08:51:13;;;;;;;3.33;3.03;;;21.10;99.90;;;;;;5030279;28;20466;-65
2023/09/04 08:53:40;;;;;;;3.30;3.00;;;21.20;99.90;;;;;;5032472;28;20460;-65
2023/09/04 08:56:07;;;;;;;3.30;3.00;;;21.40;99.90;;;;;;5029842;28;20458;-64
2023/09/04 08:58:34;;;;;;;3.10;2.90;;;21.50;99.90;;;;;;5029209;28;20497;-64
2023/09/04 09:01:01;;;;;;;3.17;2.87;;;21.60;99.90;;;;;;5029858;28;20557;-65
2023/09/04 09:03:30;;;;;;;3.07;2.87;;;21.80;99.90;;;;;;5039000;28;20492;-65
2023/09/04 09:05:58;;;;;;;3.83;3.43;;;21.90;99.90;;;;;;5049961;28;20967;-65
2023/09/04 09:08:25;;;;;;;3.90;2.93;;;22.00;99.90;;;;;;5049739;28;20460;-64
2023/09/04 09:10:53;;;;;;;3.20;2.90;;;22.10;99.90;;;;;;5053174;28;20479;-64
2023/09/04 09:13:20;;;;;;;3.00;2.70;;;22.20;99.90;;;;;;5069849;28;20457;-64
2023/09/04 09:15:47;;;;;;;3.20;3.00;;;22.30;99.90;;;;;;5057734;22;21035;-68
2023/09/04 09:18:36;;;;;;;3.70;3.40;;;22.50;99.90;;;;;;5041598;28;20487;-68
2023/09/04 09:21:02;;;;;;;4.37;3.10;;;22.40;99.90;;;;;;5045378;28;20505;-68
2023/09/04 09:23:30;;;;;;;3.13;2.87;;;22.50;99.90;;;;;;5052576;28;20951;-67
2023/09/04 09:25:57;;;;;;;4.20;3.50;;;22.60;99.90;;;;;;5052987;28;20485;-68
2023/09/04 09:28:23;;;;;;;3.07;2.77;;;22.70;99.90;;;;;;5053078;28;20460;-68
2023/09/04 09:30:51;;;;;;;3.10;2.80;;;22.70;99.90;;;;;;5048876;28;20501;-68
2023/09/04 09:33:21;;;;;;;3.07;2.87;;;22.80;99.90;;;;;;5041304;28;20867;-67
2023/09/04 09:35:49;;;;;;;4.80;3.30;;;23.00;99.90;;;;;;5033408;28;20962;-68
2023/09/04 09:38:16;;;;;;;3.53;3.23;;;23.20;99.90;;;;;;5028519;28;20496;-68
2023/09/04 09:40:45;;;;;;;3.43;3.13;;;23.40;99.90;;;;;;5030160;28;20487;-68
2023/09/04 09:43:12;;;;;;;3.10;2.80;;;23.50;99.90;;;;;;5030590;28;20491;-67
2023/09/04 09:45:39;;;;;;;3.47;3.17;;;23.50;99.90;;;;;;5032743;28;20980;-68
2023/09/04 09:48:07;;;;;;;3.90;3.03;;;23.60;99.90;;;;;;5029132;28;20455;-66
2023/09/04 09:50:37;;;;;;;3.03;2.53;;;23.80;99.90;;;;;;5030124;28;20472;-66
2023/09/04 09:53:05;;;;;;;2.97;2.77;;;23.90;99.90;;;;;;5030342;28;20460;-66
2023/09/04 09:55:34;;;;;;;3.30;3.00;;;24.00;99.90;;;;;;5030586;28;20457;-66
2023/09/04 09:58:02;;;;;;;3.50;3.20;;;24.10;99.90;;;;;;5030379;28;21000;-65
2023/09/04 10:00:29;;;;;;;3.37;3.03;;;24.10;99.90;;;;;;5030145;28;20480;-65
2023/09/04 10:02:56;;;;;;;3.53;2.60;;;24.10;99.90;;;;;;5030485;28;20463;-65
2023/09/04 10:05:25;;;;;;;3.37;3.07;;;24.20;99.90;;;;;;5029211;28;20555;-68
2023/09/04 10:08:00;;;;;;;3.00;2.80;;;24.30;99.90;;;;;;5029693;28;20479;-68
2023/09/04 10:10:31;;;;;;;2.93;2.63;;;24.40;99.90;;;;;;5029614;28;20571;-67
2023/09/04 10:13:04;;;;;;;3.13;2.50;;;24.60;99.90;;;;;;5029513;28;20545;-67
2023/09/04 10:15:34;;;;;;;2.80;2.60;;;24.60;99.90;;;;;;5039157;28;20829;-67
2023/09/04 10:18:07;;;;;;;3.60;3.30;;;24.70;99.90;;;;;;5049860;28;20568;-68
2023/09/04 10:20:35;;;;;;;3.40;3.10;;;24.70;99.90;;;;;;5049249;28;20510;-68
2023/09/04 10:23:08;;;;;;;3.13;2.83;;;24.80;99.90;;;;;;5049498;28;20845;-68
2023/09/04 10:25:47;;;;;;;3.20;2.73;;;24.90;99.90;;;;;;5049401;28;20551;-68
2023/09/04 10:28:19;;;;;;;3.20;2.97;;;25.00;99.90;;;;;;5049567;28;20463;-67
2023/09/04 10:30:52;;;;;;;2.80;2.60;;;25.00;99.90;;;;;;5049567;28;20479;-67
2023/09/04 10:33:20;;;;;;;2.70;2.50;;;25.10;99.90;;;;;;5048165;28;20460;-67
2023/09/04 10:35:47;;;;;;;2.50;2.30;;;25.10;99.90;;;;;;5049064;28;20463;-67
2023/09/04 10:38:14;;;;;;;2.70;2.50;;;25.20;99.90;;;;;;5049277;28;20480;-67
2023/09/04 10:40:42;;;;;;;3.73;2.90;;;25.40;99.90;;;;;;5048496;28;20498;-67
2023/09/04 10:43:10;;;;;;;3.10;2.90;;;25.50;99.90;;;;;;5049696;28;20498;-67
2023/09/04 10:45:37;;;;;;;3.10;2.80;;;25.60;99.90;;;;;;5048940;28;20471;-67
2023/09/04 10:48:04;;;;;;;3.03;2.63;;;25.80;99.90;;;;;;5048933;28;20460;-67
2023/09/04 10:50:34;;;;;;;3.37;2.50;;;25.80;99.90;;;;;;5040196;28;20987;-66
2023/09/04 10:53:02;;;;;;;2.60;2.40;;;25.90;99.90;;;;;;5048306;28;20462;-67
2023/09/04 10:55:30;;;;;;;2.70;2.50;;;26.00;99.90;;;;;;5048483;28;20514;-67
2023/09/04 10:58:00;;;;;;;2.77;2.57;;;26.00;99.90;;;;;;5049019;28;21294;-67
2023/09/04 11:00:29;;;;;;;2.73;2.53;;;26.10;99.90;;;;;;5048922;28;21053;-67
2023/09/04 11:02:56;;;;;;;2.63;2.27;;;26.20;99.90;;;;;;5047955;28;21095;-67
2023/09/04 11:05:24;;;;;;;2.60;2.40;;;26.30;99.90;;;;;;5032516;28;20464;-67
2023/09/04 11:07:50;;;;;;;3.30;2.77;;;26.40;99.90;;;;;;5028865;28;20941;-67
2023/09/04 11:10:37;;;;;;;2.77;2.57;;;26.50;99.90;;;;;;5028725;28;20480;-68
2023/09/04 11:13:05;;;;;;;3.10;2.80;;;26.50;99.90;;;;;;5028881;28;20464;-67
2023/09/04 11:15:34;;;;;;;3.20;2.90;;;26.60;99.90;;;;;;5028585;28;21224;-67
2023/09/04 11:18:02;;;;;;;2.27;2.07;;;26.70;99.90;;;;;;5028223;28;20488;-68
2023/09/04 11:20:29;;;;;;;3.10;2.77;;;26.70;99.90;;;;;;5028479;28;21166;-67
2023/09/04 11:22:57;;;;;;;2.60;2.23;;;26.80;99.90;;;;;;5028710;28;20489;-67
2023/09/04 11:25:25;;;;;;;3.20;2.60;;;26.70;99.90;;;;;;5028480;28;20518;-67
2023/09/04 11:27:51;;;;;;;2.50;2.30;;;26.70;99.90;;;;;;5028636;28;20518;-67
2023/09/04 11:30:19;;;;;;;3.07;2.77;;;26.70;99.90;;;;;;5028137;28;20480;-68
2023/09/04 11:32:46;;;;;;;2.43;2.20;;;26.80;99.90;;;;;;5027815;28;20476;-67
2023/09/04 11:35:14;;;;;;;2.63;2.43;;;26.80;99.90;;;;;;5028352;28;20467;-67
2023/09/04 11:37:42;;;;;;;2.70;2.50;;;26.90;99.90;;;;;;5028151;28;20468;-67
2023/09/04 11:40:12;;;;;;;2.80;2.60;;;27.00;99.90;;;;;;5028262;28;20568;-67
2023/09/04 11:42:39;;;;;;;2.37;2.17;;;27.10;99.90;;;;;;5028307;28;20456;-67
2023/09/04 11:45:07;;;;;;;2.60;2.33;;;27.00;99.90;;;;;;5027995;28;20460;-67
2023/09/04 11:47:35;;;;;;;2.63;2.43;;;27.00;99.90;;;;;;5028587;28;20851;-67
2023/09/04 11:50:02;;;;;;;3.50;2.60;;;27.10;99.90;;;;;;5028132;28;20483;-67
2023/09/04 11:52:29;;;;;;;2.80;2.60;;;27.20;99.90;;;;;;5028296;28;20465;-67
2023/09/04 11:54:56;;;;;;;2.27;2.07;;;27.40;99.90;;;;;;5028664;28;20542;-67
2023/09/04 11:57:23;;;;;;;3.00;2.57;;;27.40;99.90;;;;;;5028931;28;20460;-67
2023/09/04 11:59:50;;;;;;;2.40;2.13;;;27.50;99.90;;;;;;5028069;28;20481;-67
2023/09/04 12:02:20;;;;;;;2.50;2.30;;;27.60;99.90;;;;;;5028085;28;20461;-67
2023/09/04 12:04:49;;;;;;;2.60;2.40;;;27.70;99.90;;;;;;5027895;28;20479;-67
2023/09/04 12:07:18;;;;;;;2.90;2.60;;;27.70;99.90;;;;;;5028398;28;21293;-67
2023/09/04 12:09:45;;;;;;;2.43;2.23;;;27.90;99.90;;;;;;5027581;28;20475;-68
2023/09/04 12:12:15;;;;;;;2.67;2.47;;;28.00;99.90;;;;;;5028234;28;20461;-67
2023/09/04 12:14:45;;;;;;;2.70;2.27;;;28.10;99.90;;;;;;5027576;28;20918;-67
2023/09/04 12:17:12;;;;;;;2.90;2.70;;;28.20;99.90;;;;;;5028155;28;20511;-67
2023/09/04 12:19:38;;;;;;;2.47;2.27;;;28.10;99.40;;;;;;5027453;28;20524;-67
2023/09/04 12:22:14;;;;;;;2.67;2.47;;;28.10;99.90;;;;;;5027751;28;20781;-68
2023/09/04 12:24:41;;;;;;;2.70;2.50;;;28.10;99.90;;;;;;5027274;28;20464;-67
2023/09/04 12:27:10;;;;;;;2.90;2.60;;;28.10;99.90;;;;;;5024301;28;20488;-67
2023/09/04 12:29:36;;;;;;;2.73;2.50;;;28.10;99.90;;;;;;5022889;28;20479;-67
2023/09/04 12:32:03;;;;;;;2.10;1.90;;;28.10;99.90;;;;;;5025821;28;20445;-67
2023/09/04 12:34:31;;;;;;;3.00;2.70;;;28.20;99.90;;;;;;5026475;28;20465;-67
2023/09/04 12:36:59;;;;;;;2.53;2.33;;;28.30;99.90;;;;;;5026466;28;20463;-67
2023/09/04 12:39:27;;;;;;;2.83;2.63;;;28.30;99.90;;;;;;5027582;28;20483;-67
2023/09/04 12:41:56;;;;;;;2.20;1.90;;;28.20;99.90;;;;;;5026846;28;20460;-68
2023/09/04 12:44:22;;;;;;;2.27;2.07;;;28.30;99.90;;;;;;5027891;28;20495;-67
2023/09/04 12:46:49;;;;;;;2.23;2.07;;;28.40;99.90;;;;;;5027609;28;20457;-67
2023/09/04 12:49:16;;;;;;;2.60;2.40;;;28.30;99.90;;;;;;5028059;28;20856;-67